sensor_id;sensor_type;location;lat;lon;timestamp;temperature;humidity
736;DHT22;352;48.626;9.238;2023-04-25T00:02:16;10.30;99.90
736;DHT22;352;48.626;9.238;2023-04-25T00:04:43;10.30;99.90
736;DHT22;352;48.626;9.238;2023-04-25T00:07:10;10.30;99.90
736;DHT22;352;48.626;9.238;2023-04-25T00:09:38;10.30;99.90
736;DHT22;352;48.626;9.238;2023-04-25T00:12:05;10.40;99.90
736;DHT22;352;48.626;9.238;2023-04-25T00:14:32;10.50;99.90
736;DHT22;352;48.626;9.238;2023-04-25T00:17:00;10.50;99.90
736;DHT22;352;48.626;9.238;2023-04-25T00:19:28;10.50;99.90
736;DHT22;352;48.626;9.238;2023-04-25T00:21:55;10.50;99.90
736;DHT22;352;48.626;9.238;2023-04-25T00:24:21;10.60;99.90
736;DHT22;352;48.626;9.238;2023-04-25T00:26:49;10.50;99.90
736;DHT22;352;48.626;9.238;2023-04-25T00:29:16;10.40;99.90
736;DHT22;352;48.626;9.238;2023-04-25T00:31:43;10.40;99.90
736;DHT22;352;48.626;9.238;2023-04-25T00:34:10;10.40;99.90
736;DHT22;352;48.626;9.238;2023-04-25T00:36:36;10.40;99.90
736;DHT22;352;48.626;9.238;2023-04-25T00:39:03;10.30;99.90
736;DHT22;352;48.626;9.238;2023-04-25T00:41:32;10.30;99.90
736;DHT22;352;48.626;9.238;2023-04-25T00:44:01;10.30;99.90
736;DHT22;352;48.626;9.238;2023-04-25T00:46:29;10.20;99.90
736;DHT22;352;48.626;9.238;2023-04-25T00:48:56;10.20;99.90
736;DHT22;352;48.626;9.238;2023-04-25T00:51:23;10.30;99.90
736;DHT22;352;48.626;9.238;2023-04-25T00:53:51;10.20;99.90
736;DHT22;352;48.626;9.238;2023-04-25T00:56:18;10.30;99.90
736;DHT22;352;48.626;9.238;2023-04-25T00:58:45;10.30;99.90
736;DHT22;352;48.626;9.238;2023-04-25T01:01:13;10.30;99.90
736;DHT22;352;48.626;9.238;2023-04-25T01:03:40;10.30;99.90
736;DHT22;352;48.626;9.238;2023-04-25T01:06:08;10.30;99.90
736;DHT22;352;48.626;9.238;2023-04-25T01:08:36;10.30;99.90
736;DHT22;352;48.626;9.238;2023-04-25T01:11:03;10.30;99.90
736;DHT22;352;48.626;9.238;2023-04-25T01:13:30;10.30;99.90
736;DHT22;352;48.626;9.238;2023-04-25T01:15:57;10.30;99.90
736;DHT22;352;48.626;9.238;2023-04-25T01:18:26;10.30;99.90
736;DHT22;352;48.626;9.238;2023-04-25T01:20:53;10.30;99.90
736;DHT22;352;48.626;9.238;2023-04-25T01:23:22;10.30;99.90
736;DHT22;352;48.626;9.238;2023-04-25T01:25:49;10.30;99.90
736;DHT22;352;48.626;9.238;2023-04-25T01:28:17;10.30;99.90
736;DHT22;352;48.626;9.238;2023-04-25T01:30:44;10.40;99.90
736;DHT22;352;48.626;9.238;2023-04-25T01:33:13;10.40;99.90
736;DHT22;352;48.626;9.238;2023-04-25T01:35:40;10.40;99.90
736;DHT22;352;48.626;9.238;2023-04-25T01:38:07;10.40;99.90
736;DHT22;352;48.626;9.238;2023-04-25T01:40:39;10.40;99.90
736;DHT22;352;48.626;9.238;2023-04-25T01:43:06;10.40;99.90
736;DHT22;352;48.626;9.238;2023-04-25T01:45:33;10.40;99.90
736;DHT22;352;48.626;9.238;2023-04-25T01:48:01;10.40;99.90
736;DHT22;352;48.626;9.238;2023-04-25T01:50:28;10.40;99.90
736;DHT22;352;48.626;9.238;2023-04-25T01:52:55;10.40;99.90
736;DHT22;352;48.626;9.238;2023-04-25T01:55:22;10.30;99.90
736;DHT22;352;48.626;9.238;2023-04-25T01:57:50;10.30;99.90
736;DHT22;352;48.626;9.238;2023-04-25T02:00:18;10.40;99.90
736;DHT22;352;48.626;9.238;2023-04-25T02:02:44;10.40;99.90
736;DHT22;352;48.626;9.238;2023-04-25T02:05:11;10.40;99.90
736;DHT22;352;48.626;9.238;2023-04-25T02:07:38;10.30;99.90
736;DHT22;352;48.626;9.238;2023-04-25T02:10:05;10.30;99.90
736;DHT22;352;48.626;9.238;2023-04-25T02:12:32;10.30;99.90
736;DHT22;352;48.626;9.238;2023-04-25T02:15:00;10.30;99.90
736;DHT22;352;48.626;9.238;2023-04-25T02:17:27;10.30;99.90
736;DHT22;352;48.626;9.238;2023-04-25T02:19:53;10.30;99.90
736;DHT22;352;48.626;9.238;2023-04-25T02:22:20;10.30;99.90
736;DHT22;352;48.626;9.238;2023-04-25T02:24:47;10.30;99.90
736;DHT22;352;48.626;9.238;2023-04-25T02:27:14;10.30;99.90
736;DHT22;352;48.626;9.238;2023-04-25T02:29:40;10.20;99.90
736;DHT22;352;48.626;9.238;2023-04-25T02:32:08;10.20;99.90
736;DHT22;352;48.626;9.238;2023-04-25T02:34:35;10.20;99.90
736;DHT22;352;48.626;9.238;2023-04-25T02:37:02;10.10;99.90
736;DHT22;352;48.626;9.238;2023-04-25T02:39:29;10.10;99.90
736;DHT22;352;48.626;9.238;2023-04-25T02:41:56;10.00;99.90
736;DHT22;352;48.626;9.238;2023-04-25T02:44:22;10.00;99.90
736;DHT22;352;48.626;9.238;2023-04-25T02:46:49;10.00;99.90
736;DHT22;352;48.626;9.238;2023-04-25T02:49:17;9.90;99.90
736;DHT22;352;48.626;9.238;2023-04-25T02:51:44;9.90;99.90
736;DHT22;352;48.626;9.238;2023-04-25T02:54:10;9.90;99.90
736;DHT22;352;48.626;9.238;2023-04-25T02:56:37;9.90;99.90
736;DHT22;352;48.626;9.238;2023-04-25T02:59:04;9.90;99.90
736;DHT22;352;48.626;9.238;2023-04-25T03:01:31;9.90;99.90
736;DHT22;352;48.626;9.238;2023-04-25T03:03:57;9.90;99.90
736;DHT22;352;48.626;9.238;2023-04-25T03:06:25;9.90;99.90
736;DHT22;352;48.626;9.238;2023-04-25T03:08:52;9.80;99.90
736;DHT22;352;48.626;9.238;2023-04-25T03:11:19;9.80;99.90
736;DHT22;352;48.626;9.238;2023-04-25T03:13:46;9.80;99.90
736;DHT22;352;48.626;9.238;2023-04-25T03:16:13;9.80;99.90
736;DHT22;352;48.626;9.238;2023-04-25T03:18:40;9.70;99.90
736;DHT22;352;48.626;9.238;2023-04-25T03:21:06;9.70;99.90
736;DHT22;352;48.626;9.238;2023-04-25T03:23:34;9.70;99.90
736;DHT22;352;48.626;9.238;2023-04-25T03:26:01;9.70;99.90
736;DHT22;352;48.626;9.238;2023-04-25T03:28:28;9.70;99.90
736;DHT22;352;48.626;9.238;2023-04-25T03:30:55;9.60;99.90
736;DHT22;352;48.626;9.238;2023-04-25T03:33:22;9.60;99.90
736;DHT22;352;48.626;9.238;2023-04-25T03:35:48;9.50;99.90
736;DHT22;352;48.626;9.238;2023-04-25T03:38:16;9.50;99.90
736;DHT22;352;48.626;9.238;2023-04-25T03:40:44;9.50;99.90
736;DHT22;352;48.626;9.238;2023-04-25T03:43:11;9.50;99.90
736;DHT22;352;48.626;9.238;2023-04-25T03:45:37;9.40;99.90
736;DHT22;352;48.626;9.238;2023-04-25T03:48:04;9.40;99.90
736;DHT22;352;48.626;9.238;2023-04-25T03:50:31;9.40;99.90
736;DHT22;352;48.626;9.238;2023-04-25T03:52:58;9.40;99.90
736;DHT22;352;48.626;9.238;2023-04-25T03:55:24;9.40;99.90
736;DHT22;352;48.626;9.238;2023-04-25T03:57:52;9.70;99.90
736;DHT22;352;48.626;9.238;2023-04-25T04:00:19;9.50;99.90
736;DHT22;352;48.626;9.238;2023-04-25T04:02:46;9.50;99.90
736;DHT22;352;48.626;9.238;2023-04-25T04:05:12;9.50;99.90
736;DHT22;352;48.626;9.238;2023-04-25T04:07:39;9.40;99.90
736;DHT22;352;48.626;9.238;2023-04-25T04:10:08;9.40;99.90
736;DHT22;352;48.626;9.238;2023-04-25T04:12:35;9.40;99.90
736;DHT22;352;48.626;9.238;2023-04-25T04:15:04;9.30;99.90
736;DHT22;352;48.626;9.238;2023-04-25T04:17:31;9.20;99.90
736;DHT22;352;48.626;9.238;2023-04-25T04:19:58;9.20;99.90
736;DHT22;352;48.626;9.238;2023-04-25T04:22:24;9.10;99.90
736;DHT22;352;48.626;9.238;2023-04-25T04:24:51;9.10;99.90
736;DHT22;352;48.626;9.238;2023-04-25T04:27:21;9.10;99.90
736;DHT22;352;48.626;9.238;2023-04-25T04:29:48;9.20;99.90
736;DHT22;352;48.626;9.238;2023-04-25T04:32:19;9.20;99.90
736;DHT22;352;48.626;9.238;2023-04-25T04:34:45;9.30;99.90
736;DHT22;352;48.626;9.238;2023-04-25T04:37:14;9.40;99.90
736;DHT22;352;48.626;9.238;2023-04-25T04:39:41;9.40;99.90
736;DHT22;352;48.626;9.238;2023-04-25T04:42:07;9.40;99.90
736;DHT22;352;48.626;9.238;2023-04-25T04:44:34;9.50;99.90
736;DHT22;352;48.626;9.238;2023-04-25T04:47:02;9.50;99.90
736;DHT22;352;48.626;9.238;2023-04-25T04:49:33;9.50;99.90
736;DHT22;352;48.626;9.238;2023-04-25T04:52:00;9.40;99.90
736;DHT22;352;48.626;9.238;2023-04-25T04:54:27;9.40;99.90
736;DHT22;352;48.626;9.238;2023-04-25T04:56:54;9.40;99.90
736;DHT22;352;48.626;9.238;2023-04-25T04:59:20;9.30;99.90
736;DHT22;352;48.626;9.238;2023-04-25T05:01:47;9.30;99.90
736;DHT22;352;48.626;9.238;2023-04-25T05:04:14;9.40;99.90
736;DHT22;352;48.626;9.238;2023-04-25T05:06:42;9.40;99.90
736;DHT22;352;48.626;9.238;2023-04-25T05:09:09;9.40;99.90
736;DHT22;352;48.626;9.238;2023-04-25T05:11:36;9.50;99.90
736;DHT22;352;48.626;9.238;2023-04-25T05:14:03;9.50;99.90
736;DHT22;352;48.626;9.238;2023-04-25T05:16:29;9.60;99.90
736;DHT22;352;48.626;9.238;2023-04-25T05:18:56;9.70;99.90
736;DHT22;352;48.626;9.238;2023-04-25T05:21:23;9.80;99.90
736;DHT22;352;48.626;9.238;2023-04-25T05:23:51;9.80;99.90
736;DHT22;352;48.626;9.238;2023-04-25T05:26:17;9.90;99.90
736;DHT22;352;48.626;9.238;2023-04-25T05:28:44;9.90;99.90
736;DHT22;352;48.626;9.238;2023-04-25T05:31:11;9.90;99.90
736;DHT22;352;48.626;9.238;2023-04-25T05:33:38;9.90;99.90
736;DHT22;352;48.626;9.238;2023-04-25T05:36:05;9.90;99.90
736;DHT22;352;48.626;9.238;2023-04-25T05:38:32;9.90;99.90
736;DHT22;352;48.626;9.238;2023-04-25T05:41:00;9.90;99.90
736;DHT22;352;48.626;9.238;2023-04-25T05:43:27;9.90;99.90
736;DHT22;352;48.626;9.238;2023-04-25T05:45:54;9.90;99.90
736;DHT22;352;48.626;9.238;2023-04-25T05:48:20;9.90;99.90
736;DHT22;352;48.626;9.238;2023-04-25T05:50:47;9.90;99.90
736;DHT22;352;48.626;9.238;2023-04-25T05:53:14;9.90;99.90
736;DHT22;352;48.626;9.238;2023-04-25T05:55:40;10.00;99.90
736;DHT22;352;48.626;9.238;2023-04-25T05:58:08;10.00;99.90
736;DHT22;352;48.626;9.238;2023-04-25T06:00:35;10.10;99.90
736;DHT22;352;48.626;9.238;2023-04-25T06:03:02;10.10;99.90
736;DHT22;352;48.626;9.238;2023-04-25T06:05:29;10.20;99.90
736;DHT22;352;48.626;9.238;2023-04-25T06:07:56;10.30;99.90
736;DHT22;352;48.626;9.238;2023-04-25T06:10:23;10.40;99.90
736;DHT22;352;48.626;9.238;2023-04-25T06:12:50;10.40;99.90
736;DHT22;352;48.626;9.238;2023-04-25T06:15:18;10.50;99.90
736;DHT22;352;48.626;9.238;2023-04-25T06:17:44;10.90;99.90
736;DHT22;352;48.626;9.238;2023-04-25T06:20:11;10.80;99.90
736;DHT22;352;48.626;9.238;2023-04-25T06:22:38;10.80;99.90
736;DHT22;352;48.626;9.238;2023-04-25T06:25:06;10.90;99.90
736;DHT22;352;48.626;9.238;2023-04-25T06:29:59;11.10;99.90
736;DHT22;352;48.626;9.238;2023-04-25T06:32:27;11.20;99.90
736;DHT22;352;48.626;9.238;2023-04-25T06:34:55;11.30;99.90
736;DHT22;352;48.626;9.238;2023-04-25T06:37:22;11.40;99.90
736;DHT22;352;48.626;9.238;2023-04-25T06:39:48;11.50;99.90
736;DHT22;352;48.626;9.238;2023-04-25T06:42:15;11.60;99.90
736;DHT22;352;48.626;9.238;2023-04-25T06:44:42;11.60;99.90
736;DHT22;352;48.626;9.238;2023-04-25T06:47:08;11.60;99.90
736;DHT22;352;48.626;9.238;2023-04-25T06:49:36;11.50;99.90
736;DHT22;352;48.626;9.238;2023-04-25T06:52:03;11.50;99.90
736;DHT22;352;48.626;9.238;2023-04-25T06:54:30;11.50;99.90
736;DHT22;352;48.626;9.238;2023-04-25T06:56:57;11.50;99.90
736;DHT22;352;48.626;9.238;2023-04-25T06:59:23;11.40;99.90
736;DHT22;352;48.626;9.238;2023-04-25T07:01:50;11.30;99.90
736;DHT22;352;48.626;9.238;2023-04-25T07:04:17;11.20;99.90
736;DHT22;352;48.626;9.238;2023-04-25T07:06:45;11.20;99.90
736;DHT22;352;48.626;9.238;2023-04-25T07:09:13;11.20;99.90
736;DHT22;352;48.626;9.238;2023-04-25T07:11:40;11.10;99.90
736;DHT22;352;48.626;9.238;2023-04-25T07:14:07;11.10;99.90
736;DHT22;352;48.626;9.238;2023-04-25T07:16:34;11.10;99.90
736;DHT22;352;48.626;9.238;2023-04-25T07:19:00;11.10;99.90
736;DHT22;352;48.626;9.238;2023-04-25T07:21:27;11.10;99.90
736;DHT22;352;48.626;9.238;2023-04-25T07:23:55;11.00;99.90
736;DHT22;352;48.626;9.238;2023-04-25T07:26:22;11.00;99.90
736;DHT22;352;48.626;9.238;2023-04-25T07:28:48;11.00;99.90
736;DHT22;352;48.626;9.238;2023-04-25T07:31:16;11.00;99.90
736;DHT22;352;48.626;9.238;2023-04-25T07:33:43;11.00;99.90
736;DHT22;352;48.626;9.238;2023-04-25T07:36:10;11.00;99.90
736;DHT22;352;48.626;9.238;2023-04-25T07:38:37;10.90;99.90
736;DHT22;352;48.626;9.238;2023-04-25T07:41:05;10.90;99.90
736;DHT22;352;48.626;9.238;2023-04-25T07:43:32;10.90;99.90
736;DHT22;352;48.626;9.238;2023-04-25T07:45:59;10.90;99.90
736;DHT22;352;48.626;9.238;2023-04-25T07:48:26;10.90;99.90
736;DHT22;352;48.626;9.238;2023-04-25T07:50:52;10.80;99.90
736;DHT22;352;48.626;9.238;2023-04-25T07:53:19;10.80;99.90
736;DHT22;352;48.626;9.238;2023-04-25T07:55:46;10.70;99.90
736;DHT22;352;48.626;9.238;2023-04-25T07:58:14;10.70;99.90
736;DHT22;352;48.626;9.238;2023-04-25T08:00:40;10.60;99.90
736;DHT22;352;48.626;9.238;2023-04-25T08:03:09;10.60;99.90
736;DHT22;352;48.626;9.238;2023-04-25T08:05:36;10.60;99.90
736;DHT22;352;48.626;9.238;2023-04-25T08:08:02;10.60;99.90
736;DHT22;352;48.626;9.238;2023-04-25T08:10:31;10.60;99.90
736;DHT22;352;48.626;9.238;2023-04-25T08:12:59;10.50;99.90
736;DHT22;352;48.626;9.238;2023-04-25T08:15:27;10.50;99.90
736;DHT22;352;48.626;9.238;2023-04-25T08:17:54;10.50;99.90
736;DHT22;352;48.626;9.238;2023-04-25T08:20:20;10.50;99.90
736;DHT22;352;48.626;9.238;2023-04-25T08:22:47;10.50;99.90
736;DHT22;352;48.626;9.238;2023-04-25T08:25:14;10.50;99.90
736;DHT22;352;48.626;9.238;2023-04-25T08:27:41;10.50;99.90
736;DHT22;352;48.626;9.238;2023-04-25T08:30:08;10.50;99.90
736;DHT22;352;48.626;9.238;2023-04-25T08:32:36;10.50;99.90
736;DHT22;352;48.626;9.238;2023-04-25T08:35:05;10.50;99.90
736;DHT22;352;48.626;9.238;2023-04-25T08:37:32;10.50;99.90
736;DHT22;352;48.626;9.238;2023-04-25T08:39:59;10.50;99.90
736;DHT22;352;48.626;9.238;2023-04-25T08:42:27;10.40;99.90
736;DHT22;352;48.626;9.238;2023-04-25T08:44:54;10.40;99.90
736;DHT22;352;48.626;9.238;2023-04-25T08:47:22;10.50;99.90
736;DHT22;352;48.626;9.238;2023-04-25T08:49:52;10.50;99.90
736;DHT22;352;48.626;9.238;2023-04-25T08:52:21;10.50;99.90
736;DHT22;352;48.626;9.238;2023-04-25T08:54:49;10.50;99.90
736;DHT22;352;48.626;9.238;2023-04-25T08:57:18;10.50;99.90
736;DHT22;352;48.626;9.238;2023-04-25T08:59:46;10.60;99.90
736;DHT22;352;48.626;9.238;2023-04-25T09:02:14;10.60;99.90
736;DHT22;352;48.626;9.238;2023-04-25T09:04:43;10.60;99.90
736;DHT22;352;48.626;9.238;2023-04-25T09:07:12;10.60;99.90
736;DHT22;352;48.626;9.238;2023-04-25T09:09:41;10.60;99.90
736;DHT22;352;48.626;9.238;2023-04-25T09:12:08;10.60;99.90
736;DHT22;352;48.626;9.238;2023-04-25T09:14:35;10.60;99.90
736;DHT22;352;48.626;9.238;2023-04-25T09:17:03;10.60;99.90
736;DHT22;352;48.626;9.238;2023-04-25T09:19:31;10.60;99.90
736;DHT22;352;48.626;9.238;2023-04-25T09:22:02;10.60;99.90
736;DHT22;352;48.626;9.238;2023-04-25T09:24:32;10.60;99.90
736;DHT22;352;48.626;9.238;2023-04-25T09:26:59;10.60;99.90
736;DHT22;352;48.626;9.238;2023-04-25T09:29:30;10.60;99.90
736;DHT22;352;48.626;9.238;2023-04-25T09:32:17;10.60;99.90
736;DHT22;352;48.626;9.238;2023-04-25T09:34:45;10.50;99.90
736;DHT22;352;48.626;9.238;2023-04-25T09:37:17;10.50;99.90
736;DHT22;352;48.626;9.238;2023-04-25T09:39:46;10.50;99.90
736;DHT22;352;48.626;9.238;2023-04-25T09:42:13;10.40;99.90
736;DHT22;352;48.626;9.238;2023-04-25T09:44:42;10.40;99.90
736;DHT22;352;48.626;9.238;2023-04-25T09:47:09;10.40;99.90
736;DHT22;352;48.626;9.238;2023-04-25T09:49:39;10.40;99.90
736;DHT22;352;48.626;9.238;2023-04-25T09:52:07;10.40;99.90
736;DHT22;352;48.626;9.238;2023-04-25T09:54:33;10.50;99.90
736;DHT22;352;48.626;9.238;2023-04-25T09:57:10;10.50;99.90
736;DHT22;352;48.626;9.238;2023-04-25T09:59:39;10.50;99.90
736;DHT22;352;48.626;9.238;2023-04-25T10:02:07;10.50;99.90
736;DHT22;352;48.626;9.238;2023-04-25T10:04:34;10.50;99.90
736;DHT22;352;48.626;9.238;2023-04-25T10:07:02;10.50;99.90
736;DHT22;352;48.626;9.238;2023-04-25T10:09:31;10.60;99.90
736;DHT22;352;48.626;9.238;2023-04-25T10:11:59;10.60;99.90
736;DHT22;352;48.626;9.238;2023-04-25T10:14:27;10.60;99.90
736;DHT22;352;48.626;9.238;2023-04-25T10:16:55;10.60;99.90
736;DHT22;352;48.626;9.238;2023-04-25T10:19:23;10.60;99.90
736;DHT22;352;48.626;9.238;2023-04-25T10:21:52;10.50;99.90
736;DHT22;352;48.626;9.238;2023-04-25T10:24:20;10.50;99.90
736;DHT22;352;48.626;9.238;2023-04-25T10:26:47;10.40;99.90
736;DHT22;352;48.626;9.238;2023-04-25T10:29:21;10.40;99.90
736;DHT22;352;48.626;9.238;2023-04-25T10:31:49;10.40;99.90
736;DHT22;352;48.626;9.238;2023-04-25T10:34:17;10.30;99.90
736;DHT22;352;48.626;9.238;2023-04-25T10:36:49;10.30;99.90
736;DHT22;352;48.626;9.238;2023-04-25T10:39:21;10.30;99.90
736;DHT22;352;48.626;9.238;2023-04-25T10:41:52;10.30;99.90
736;DHT22;352;48.626;9.238;2023-04-25T10:44:20;10.30;99.90
736;DHT22;352;48.626;9.238;2023-04-25T10:46:46;10.30;99.90
736;DHT22;352;48.626;9.238;2023-04-25T10:52:16;10.50;99.90
736;DHT22;352;48.626;9.238;2023-04-25T10:54:47;10.30;99.90
736;DHT22;352;48.626;9.238;2023-04-25T10:57:27;10.30;99.90
736;DHT22;352;48.626;9.238;2023-04-25T10:59:58;10.40;99.90
736;DHT22;352;48.626;9.238;2023-04-25T11:02:26;10.40;99.90
736;DHT22;352;48.626;9.238;2023-04-25T11:04:54;10.40;99.90
736;DHT22;352;48.626;9.238;2023-04-25T11:07:29;10.40;99.90
736;DHT22;352;48.626;9.238;2023-04-25T11:10:01;10.50;99.90
736;DHT22;352;48.626;9.238;2023-04-25T11:12:30;10.50;99.90
736;DHT22;352;48.626;9.238;2023-04-25T11:15:00;10.50;99.90
736;DHT22;352;48.626;9.238;2023-04-25T11:17:28;10.50;99.90
736;DHT22;352;48.626;9.238;2023-04-25T11:19:54;10.50;99.90
736;DHT22;352;48.626;9.238;2023-04-25T11:22:23;10.50;99.90
736;DHT22;352;48.626;9.238;2023-04-25T11:24:50;10.50;99.90
736;DHT22;352;48.626;9.238;2023-04-25T11:27:17;10.60;99.90
736;DHT22;352;48.626;9.238;2023-04-25T11:29:44;10.60;99.90
736;DHT22;352;48.626;9.238;2023-04-25T11:32:14;10.60;99.90
736;DHT22;352;48.626;9.238;2023-04-25T11:34:43;10.60;99.90
736;DHT22;352;48.626;9.238;2023-04-25T11:37:10;10.60;99.90
736;DHT22;352;48.626;9.238;2023-04-25T11:39:42;10.60;99.90
736;DHT22;352;48.626;9.238;2023-04-25T11:42:09;10.60;99.90
736;DHT22;352;48.626;9.238;2023-04-25T11:44:37;10.60;99.90
736;DHT22;352;48.626;9.238;2023-04-25T11:47:06;10.60;99.90
736;DHT22;352;48.626;9.238;2023-04-25T11:49:33;10.70;99.90
736;DHT22;352;48.626;9.238;2023-04-25T11:52:01;10.60;99.90
736;DHT22;352;48.626;9.238;2023-04-25T11:54:27;10.70;99.90
736;DHT22;352;48.626;9.238;2023-04-25T11:56:55;10.70;99.90
736;DHT22;352;48.626;9.238;2023-04-25T11:59:24;10.70;99.90
736;DHT22;352;48.626;9.238;2023-04-25T12:01:52;10.70;99.90
736;DHT22;352;48.626;9.238;2023-04-25T12:04:20;10.60;99.90
736;DHT22;352;48.626;9.238;2023-04-25T12:06:48;10.60;99.90
736;DHT22;352;48.626;9.238;2023-04-25T12:09:17;10.60;99.90
736;DHT22;352;48.626;9.238;2023-04-25T12:11:45;10.70;99.90
736;DHT22;352;48.626;9.238;2023-04-25T12:14:21;10.70;99.90
736;DHT22;352;48.626;9.238;2023-04-25T12:16:49;10.70;99.90
736;DHT22;352;48.626;9.238;2023-04-25T12:19:17;10.70;99.90
736;DHT22;352;48.626;9.238;2023-04-25T12:21:44;10.70;99.90
736;DHT22;352;48.626;9.238;2023-04-25T12:24:13;10.70;99.90
736;DHT22;352;48.626;9.238;2023-04-25T12:26:50;10.70;99.90
736;DHT22;352;48.626;9.238;2023-04-25T12:29:20;10.70;99.90
736;DHT22;352;48.626;9.238;2023-04-25T12:31:47;10.70;99.90
736;DHT22;352;48.626;9.238;2023-04-25T12:34:14;10.80;99.90
736;DHT22;352;48.626;9.238;2023-04-25T12:36:41;10.80;99.90
736;DHT22;352;48.626;9.238;2023-04-25T12:39:07;10.80;99.90
736;DHT22;352;48.626;9.238;2023-04-25T12:41:34;10.80;99.90
736;DHT22;352;48.626;9.238;2023-04-25T12:44:01;10.80;99.90
736;DHT22;352;48.626;9.238;2023-04-25T12:46:29;10.70;99.90
736;DHT22;352;48.626;9.238;2023-04-25T12:48:56;10.60;99.90
736;DHT22;352;48.626;9.238;2023-04-25T12:51:23;10.60;99.90
736;DHT22;352;48.626;9.238;2023-04-25T12:53:50;10.60;99.90
736;DHT22;352;48.626;9.238;2023-04-25T12:56:18;10.50;99.90
736;DHT22;352;48.626;9.238;2023-04-25T12:58:45;10.50;99.90
736;DHT22;352;48.626;9.238;2023-04-25T13:01:13;10.50;99.90
736;DHT22;352;48.626;9.238;2023-04-25T13:03:41;10.60;99.90
736;DHT22;352;48.626;9.238;2023-04-25T13:06:08;10.60;99.90
736;DHT22;352;48.626;9.238;2023-04-25T13:08:35;10.60;99.90
736;DHT22;352;48.626;9.238;2023-04-25T13:11:03;10.70;99.90
736;DHT22;352;48.626;9.238;2023-04-25T13:13:30;10.70;99.90
736;DHT22;352;48.626;9.238;2023-04-25T13:15:57;10.90;99.90
736;DHT22;352;48.626;9.238;2023-04-25T13:18:24;11.00;99.90
736;DHT22;352;48.626;9.238;2023-04-25T13:20:53;11.00;99.90
736;DHT22;352;48.626;9.238;2023-04-25T13:23:20;11.10;99.90
736;DHT22;352;48.626;9.238;2023-04-25T13:25:47;11.10;99.90
736;DHT22;352;48.626;9.238;2023-04-25T13:28:14;11.00;99.90
736;DHT22;352;48.626;9.238;2023-04-25T13:30:41;11.10;99.90
736;DHT22;352;48.626;9.238;2023-04-25T13:33:08;11.20;99.90
736;DHT22;352;48.626;9.238;2023-04-25T13:35:37;11.30;99.90
736;DHT22;352;48.626;9.238;2023-04-25T13:38:05;11.40;99.90
736;DHT22;352;48.626;9.238;2023-04-25T13:40:32;11.50;99.90
736;DHT22;352;48.626;9.238;2023-04-25T13:42:59;11.50;99.90
736;DHT22;352;48.626;9.238;2023-04-25T13:45:25;11.60;99.90
736;DHT22;352;48.626;9.238;2023-04-25T13:47:52;11.60;99.90
736;DHT22;352;48.626;9.238;2023-04-25T13:50:19;11.60;99.90
736;DHT22;352;48.626;9.238;2023-04-25T13:52:46;11.70;99.90
736;DHT22;352;48.626;9.238;2023-04-25T13:55:14;11.80;99.90
736;DHT22;352;48.626;9.238;2023-04-25T13:57:41;11.90;99.90
736;DHT22;352;48.626;9.238;2023-04-25T14:00:10;12.00;99.90
736;DHT22;352;48.626;9.238;2023-04-25T14:02:37;12.20;99.90
736;DHT22;352;48.626;9.238;2023-04-25T14:05:04;12.30;99.90
736;DHT22;352;48.626;9.238;2023-04-25T14:07:32;12.40;99.90
736;DHT22;352;48.626;9.238;2023-04-25T14:10:00;12.40;99.90
736;DHT22;352;48.626;9.238;2023-04-25T14:12:28;12.30;99.90
736;DHT22;352;48.626;9.238;2023-04-25T14:14:55;12.40;99.90
736;DHT22;352;48.626;9.238;2023-04-25T14:17:21;12.40;99.90
736;DHT22;352;48.626;9.238;2023-04-25T14:19:49;12.40;99.90
736;DHT22;352;48.626;9.238;2023-04-25T14:22:16;12.40;99.90
736;DHT22;352;48.626;9.238;2023-04-25T14:24:43;12.40;99.90
736;DHT22;352;48.626;9.238;2023-04-25T14:27:09;12.40;99.90
736;DHT22;352;48.626;9.238;2023-04-25T14:29:38;12.40;99.90
736;DHT22;352;48.626;9.238;2023-04-25T14:32:05;12.50;99.90
736;DHT22;352;48.626;9.238;2023-04-25T14:34:32;12.50;99.90
736;DHT22;352;48.626;9.238;2023-04-25T14:36:59;12.40;99.90
736;DHT22;352;48.626;9.238;2023-04-25T14:39:25;12.40;99.90
736;DHT22;352;48.626;9.238;2023-04-25T14:41:52;12.40;99.90
736;DHT22;352;48.626;9.238;2023-04-25T14:44:19;12.50;99.90
736;DHT22;352;48.626;9.238;2023-04-25T14:46:47;12.50;99.90
736;DHT22;352;48.626;9.238;2023-04-25T14:49:14;12.50;99.90
736;DHT22;352;48.626;9.238;2023-04-25T14:51:41;12.60;99.90
736;DHT22;352;48.626;9.238;2023-04-25T14:54:07;12.50;99.90
736;DHT22;352;48.626;9.238;2023-04-25T14:56:34;12.60;99.90
736;DHT22;352;48.626;9.238;2023-04-25T14:59:01;12.60;99.90
736;DHT22;352;48.626;9.238;2023-04-25T15:01:28;12.60;99.90
736;DHT22;352;48.626;9.238;2023-04-25T15:03:56;12.60;99.90
736;DHT22;352;48.626;9.238;2023-04-25T15:06:23;12.70;99.90
736;DHT22;352;48.626;9.238;2023-04-25T15:08:52;12.70;99.90
736;DHT22;352;48.626;9.238;2023-04-25T15:11:19;12.80;99.90
736;DHT22;352;48.626;9.238;2023-04-25T15:13:47;12.70;99.90
736;DHT22;352;48.626;9.238;2023-04-25T15:16:14;12.60;99.90
736;DHT22;352;48.626;9.238;2023-04-25T15:18:40;12.60;99.90
736;DHT22;352;48.626;9.238;2023-04-25T15:21:09;12.50;99.90
736;DHT22;352;48.626;9.238;2023-04-25T15:23:36;12.50;99.90
736;DHT22;352;48.626;9.238;2023-04-25T15:26:03;12.40;99.90
736;DHT22;352;48.626;9.238;2023-04-25T15:28:30;12.40;99.90
736;DHT22;352;48.626;9.238;2023-04-25T15:30:59;12.40;99.90
736;DHT22;352;48.626;9.238;2023-04-25T15:33:25;12.40;99.90
736;DHT22;352;48.626;9.238;2023-04-25T15:35:52;12.40;99.90
736;DHT22;352;48.626;9.238;2023-04-25T15:38:20;12.40;99.90
736;DHT22;352;48.626;9.238;2023-04-25T15:40:47;12.40;99.90
736;DHT22;352;48.626;9.238;2023-04-25T15:43:13;12.40;99.90
736;DHT22;352;48.626;9.238;2023-04-25T15:45:42;12.40;99.90
736;DHT22;352;48.626;9.238;2023-04-25T15:48:09;12.40;99.90
736;DHT22;352;48.626;9.238;2023-04-25T15:50:36;12.30;99.90
736;DHT22;352;48.626;9.238;2023-04-25T15:53:03;12.30;99.90
736;DHT22;352;48.626;9.238;2023-04-25T15:55:31;12.20;99.90
736;DHT22;352;48.626;9.238;2023-04-25T15:57:58;12.20;99.90
736;DHT22;352;48.626;9.238;2023-04-25T16:00:25;12.20;99.90
736;DHT22;352;48.626;9.238;2023-04-25T16:02:52;12.20;99.90
736;DHT22;352;48.626;9.238;2023-04-25T16:05:19;12.20;99.90
736;DHT22;352;48.626;9.238;2023-04-25T16:07:46;12.20;99.90
736;DHT22;352;48.626;9.238;2023-04-25T16:10:13;12.20;99.90
736;DHT22;352;48.626;9.238;2023-04-25T16:12:45;12.20;99.90
736;DHT22;352;48.626;9.238;2023-04-25T16:15:12;12.20;99.90
736;DHT22;352;48.626;9.238;2023-04-25T16:17:39;12.20;99.90
736;DHT22;352;48.626;9.238;2023-04-25T16:20:07;12.20;99.90
736;DHT22;352;48.626;9.238;2023-04-25T16:22:35;12.20;99.90
736;DHT22;352;48.626;9.238;2023-04-25T16:25:02;12.20;99.90
736;DHT22;352;48.626;9.238;2023-04-25T16:27:30;12.10;99.90
736;DHT22;352;48.626;9.238;2023-04-25T16:29:58;12.10;99.90
736;DHT22;352;48.626;9.238;2023-04-25T16:32:24;12.10;99.90
736;DHT22;352;48.626;9.238;2023-04-25T16:34:51;12.10;99.90
736;DHT22;352;48.626;9.238;2023-04-25T16:37:18;12.20;99.90
736;DHT22;352;48.626;9.238;2023-04-25T16:39:45;12.10;99.90
736;DHT22;352;48.626;9.238;2023-04-25T16:42:11;12.10;99.90
736;DHT22;352;48.626;9.238;2023-04-25T16:44:38;12.10;99.90